Newburg, Missouri
Current Conditions -  °F | °C
As of 9:53 AM on Wednesday 22 Oct 2014 (Local Time) from KVIH Reporting Station
Clear Clear  
Wind Chill: 51°   Ceiling: Unl
Heat Index: 51°   Visibility: 10mi
Dew Point: 42°   Wind: 10mph
Humidity: 71%   Direction: 140°SE
Pressure: 30.27"   Gusts: NA
Location:  37.91°N, 91.9°W
Report Text: KVIH 221453Z AUTO 14009KT 10SM CLR 11/06 A3027 RMK AO2 SLP252 T01060056 51014
Loading
Personal Weather Stations






























Interactive Weather Map
Tropical Storm Tracking
New forecast layout! Learn more

10-Day Weather Forecast

Advertisements
Track Severe Weather on mobile